Tekamah, Nebraska
Current Conditions -  °F | °C
As of 1:08 AM on Monday 24 Nov 2014 (Local Time) from KTQE Reporting Station
Overcast Overcast  
Wind Chill: -7°   Ceiling: 2800
Heat Index:   Visibility: 10mi
Dew Point: -6°   Wind: 23mph
Humidity: 64%   Direction: 330°NNW
Pressure: 29.53"   Gusts: 31mph
Location:  41.78°N, 96.22°W
Report Text: KTQE 240708Z AUTO 33020G27KT 10SM OVC028 00/M06 A2953 RMK AO2 PK WND 33027/0708 T00001061
Loading
Personal Weather Stations






























Interactive Weather Map New forecast layout! Learn more

10-Day Weather Forecast

Advertisements
Track Severe Weather on mobile